createdAt,value
2019-05-10T05:45:06.945Z,99.90
2019-05-10T05:48:16.047Z,99.90
2019-05-10T05:50:44.763Z,99.90
2019-05-10T05:53:14.168Z,99.90
2019-05-10T05:55:44.086Z,99.90
2019-05-10T05:58:26.476Z,99.90
2019-05-10T06:00:50.868Z,99.90
2019-05-10T06:05:51.106Z,99.90
2019-05-10T06:08:23.686Z,99.90
2019-05-10T06:10:57.767Z,99.90
2019-05-10T06:13:23.327Z,99.90
2019-05-10T06:15:54.036Z,99.90
2019-05-10T06:18:26.760Z,99.90
2019-05-10T06:25:56.213Z,99.90
2019-05-10T06:28:28.945Z,99.90
2019-05-10T06:30:56.804Z,99.90
2019-05-10T06:33:26.401Z,99.90
2019-05-10T06:35:55.851Z,99.90
2019-05-10T06:40:55.632Z,99.90
2019-05-10T06:43:26.058Z,99.90
2019-05-10T06:48:28.611Z,99.90
2019-05-10T06:50:57.025Z,99.10
2019-05-10T06:55:55.422Z,97.50
2019-05-10T06:58:24.925Z,97.00
2019-05-10T07:00:54.429Z,96.70
2019-05-10T07:03:24.090Z,95.50
2019-05-10T07:08:22.738Z,94.60
2019-05-10T07:10:52.194Z,94.40
2019-05-10T07:13:21.705Z,94.20
2019-05-10T07:15:51.351Z,93.80
2019-05-10T07:20:51.588Z,93.10
2019-05-10T07:23:21.093Z,92.70
2019-05-10T07:25:50.575Z,91.80
2019-05-10T07:30:49.194Z,90.40
2019-05-10T07:33:18.702Z,90.00
2019-05-10T07:35:48.688Z,89.50
2019-05-10T07:38:23.450Z,88.70
2019-05-10T07:40:49.470Z,87.90
2019-05-10T07:43:26.392Z,87.30
2019-05-10T07:45:50.163Z,87.30
2019-05-10T07:48:23.051Z,87.10
2019-05-10T07:50:51.906Z,86.60
2019-05-10T07:53:22.740Z,85.20
2019-05-10T07:55:52.700Z,84.00
2019-05-10T07:58:22.140Z,83.50
2019-05-10T08:00:51.641Z,82.00
2019-05-10T08:03:23.642Z,81.30
2019-05-10T08:05:57.037Z,81.60
2019-05-10T08:08:23.538Z,80.50
2019-05-10T08:10:53.044Z,80.80
2019-05-10T08:13:25.077Z,80.50
2019-05-10T08:15:53.439Z,79.50
2019-05-10T08:18:25.290Z,79.70
2019-05-10T08:20:59.551Z,78.60
2019-05-10T08:23:27.801Z,78.00
2019-05-10T08:28:27.869Z,76.60
2019-05-10T08:30:58.797Z,76.80
2019-05-10T08:33:28.404Z,75.30
2019-05-10T08:36:00.639Z,74.50
2019-05-10T08:38:29.027Z,73.90
2019-05-10T08:40:58.564Z,74.10
2019-05-10T08:43:30.749Z,73.50
2019-05-10T08:45:59.304Z,73.00
2019-05-10T08:48:28.909Z,72.10
2019-05-10T08:51:05.620Z,71.20
2019-05-10T08:53:29.460Z,71.10
2019-05-10T08:55:59.149Z,70.00
2019-05-10T09:01:26.565Z,69.30
2019-05-10T09:03:55.276Z,69.40
2019-05-10T09:06:18.991Z,69.10
2019-05-10T09:11:19.952Z,67.40
2019-05-10T09:13:49.447Z,65.60
2019-05-10T09:16:18.959Z,65.10
2019-05-10T09:26:19.119Z,64.30
2019-05-10T09:28:53.454Z,64.40
2019-05-10T09:31:22.672Z,61.70
2019-05-10T09:33:54.024Z,61.60
2019-05-10T09:36:25.160Z,61.10
2019-05-10T09:38:53.239Z,60.10
2019-05-10T09:41:22.755Z,59.50
2019-05-10T09:43:53.755Z,59.00
2019-05-10T09:48:18.295Z,58.70
2019-05-10T09:50:47.852Z,59.00
2019-05-10T09:53:25.390Z,58.40
2019-05-10T09:55:55.234Z,58.80
2019-05-10T09:58:22.314Z,58.40
2019-05-10T10:00:51.695Z,57.90
2019-05-10T10:03:22.120Z,57.50
2019-05-10T10:08:22.431Z,56.40
2019-05-10T10:10:51.968Z,55.90
2019-05-10T10:13:38.606Z,55.80
2019-05-10T10:15:52.725Z,54.90
2019-05-10T10:18:25.383Z,54.30
2019-05-10T10:20:53.360Z,54.20
2019-05-10T10:23:24.785Z,54.40
2019-05-10T10:25:54.108Z,54.20
2019-05-10T10:28:23.613Z,54.40
2019-05-10T10:31:02.420Z,54.10
2019-05-10T10:33:28.062Z,54.60
2019-05-10T10:35:56.422Z,54.80
2019-05-10T10:38:30.620Z,54.90
2019-05-10T10:40:57.730Z,55.50
2019-05-10T10:43:29.955Z,55.80
2019-05-10T10:45:59.459Z,55.60
2019-05-10T10:48:28.862Z,55.80
2019-05-10T10:50:58.824Z,55.70
2019-05-10T10:53:29.693Z,56.50
2019-05-10T10:56:03.572Z,57.60
2019-05-10T10:58:30.308Z,59.50
2019-05-10T11:06:01.022Z,67.00
2019-05-10T11:08:32.893Z,67.10
2019-05-10T11:11:01.566Z,65.80
2019-05-10T11:16:09.858Z,65.40
2019-05-10T11:18:34.239Z,64.70
2019-05-10T11:21:03.678Z,64.00
2019-05-10T11:24:22.886Z,63.60
2019-05-10T11:26:52.351Z,62.50
2019-05-10T11:29:26.254Z,61.90
2019-05-10T11:32:11.307Z,62.00
2019-05-10T11:34:29.397Z,61.60
2019-05-10T11:36:56.310Z,60.40
2019-05-10T11:39:26.894Z,59.60
2019-05-10T11:42:02.184Z,59.40
2019-05-10T11:44:27.485Z,58.90
2019-05-10T11:46:57.089Z,57.70
2019-05-10T11:49:26.642Z,58.20
2019-05-10T11:51:58.639Z,57.80
2019-05-10T11:54:27.145Z,58.40
2019-05-10T11:56:58.461Z,58.20
2019-05-10T11:59:33.883Z,57.20
2019-05-10T12:02:00.550Z,56.60
2019-05-10T12:04:38.654Z,56.40
2019-05-10T12:07:02.709Z,56.00
2019-05-10T12:09:32.046Z,55.80
2019-05-10T12:12:03.397Z,56.50
2019-05-10T12:14:32.593Z,56.50
2019-05-10T12:17:06.132Z,56.70
2019-05-10T12:19:44.474Z,56.00
2019-05-10T12:22:04.921Z,53.60
2019-05-10T12:26:33.848Z,50.30
2019-05-10T12:27:17.321Z,49.90
2019-05-10T12:29:36.679Z,49.10
2019-05-10T12:32:06.591Z,45.00
2019-05-10T12:34:35.995Z,44.90
2019-05-10T12:37:08.276Z,41.20
2019-05-10T12:39:36.538Z,40.20
2019-05-10T12:42:06.159Z,39.40
2019-05-10T12:44:38.874Z,37.40
2019-05-10T12:47:06.696Z,36.90
2019-05-10T12:49:36.601Z,34.60
2019-05-10T12:52:09.079Z,32.50
